Time;durP1;ratioP1;P1;durP2;ratioP2;P2;SDS_P1;SDS_P2;PMS_P1;PMS_P2;Temp;Humidity;BMP_temperature;BMP_pressure;BME280_temperature;BME280_humidity;BME280_pressure;Samples;Min_cycle;Max_cycle;Signal;HPM_P1;HPM_P2
2022/07/16 00:02:58;;;;;;;1.92;0.80;;;18.60;44.80;;;;;;4969827;28;20523;-49
2022/07/16 00:05:27;;;;;;;2.67;0.80;;;18.60;44.90;;;;;;4963021;28;20422;-47
2022/07/16 00:07:55;;;;;;;1.88;0.80;;;18.50;45.00;;;;;;4963330;28;20055;-52
2022/07/16 00:10:23;;;;;;;4.38;1.05;;;18.50;45.00;;;;;;4963135;28;20066;-47
2022/07/16 00:12:51;;;;;;;3.42;1.00;;;18.50;45.00;;;;;;4964312;28;20063;-50
2022/07/16 00:15:19;;;;;;;2.45;0.70;;;18.50;45.10;;;;;;4963421;28;20055;-48
2022/07/16 00:17:46;;;;;;;2.45;0.80;;;18.40;45.10;;;;;;4960444;28;20583;-46
2022/07/16 00:20:13;;;;;;;1.65;0.80;;;18.40;45.20;;;;;;4965311;28;20058;-46
2022/07/16 00:22:42;;;;;;;2.22;0.80;;;18.40;45.40;;;;;;4964150;28;20051;-50
2022/07/16 00:25:09;;;;;;;1.95;0.98;;;18.30;45.40;;;;;;4961992;28;20054;-51
2022/07/16 00:27:37;;;;;;;3.90;1.10;;;18.30;45.40;;;;;;4961039;28;20058;-49
2022/07/16 00:30:05;;;;;;;3.10;0.70;;;18.30;45.40;;;;;;4961252;28;20073;-49
2022/07/16 00:32:32;;;;;;;2.03;0.82;;;18.30;45.40;;;;;;4963010;28;20069;-50
2022/07/16 00:35:00;;;;;;;2.83;0.70;;;18.30;45.40;;;;;;4964928;28;20050;-49
2022/07/16 00:37:27;;;;;;;1.42;0.90;;;18.30;45.50;;;;;;4962234;28;20054;-49
2022/07/16 00:39:56;;;;;;;1.75;0.80;;;18.20;45.50;;;;;;4963575;28;20054;-47
2022/07/16 00:42:23;;;;;;;1.98;0.90;;;18.20;45.60;;;;;;4964398;28;20057;-48
2022/07/16 00:44:51;;;;;;;1.30;0.60;;;18.20;45.60;;;;;;4963048;28;20418;-51
2022/07/16 00:47:18;;;;;;;3.35;0.90;;;18.20;45.70;;;;;;4959023;28;20055;-49
2022/07/16 00:49:46;;;;;;;3.25;1.20;;;18.20;45.70;;;;;;4962965;28;20047;-47
2022/07/16 00:52:13;;;;;;;1.80;0.80;;;18.20;45.70;;;;;;4963534;28;20082;-48
2022/07/16 00:54:41;;;;;;;2.25;0.80;;;18.20;45.70;;;;;;4963042;28;20062;-45
2022/07/16 00:57:10;;;;;;;2.47;0.85;;;18.10;45.70;;;;;;4961357;28;20059;-48
2022/07/16 00:59:37;;;;;;;3.00;0.85;;;18.10;45.70;;;;;;4963005;28;20047;-49
2022/07/16 01:02:05;;;;;;;2.83;0.93;;;18.10;45.70;;;;;;4962399;28;20058;-48
2022/07/16 01:04:32;;;;;;;2.78;1.00;;;18.10;45.70;;;;;;4961916;28;20059;-49
2022/07/16 01:07:00;;;;;;;1.65;0.80;;;18.10;45.70;;;;;;4960590;28;20051;-48
2022/07/16 01:09:28;;;;;;;3.47;0.90;;;18.20;45.70;;;;;;4962614;28;20514;-47
2022/07/16 01:11:56;;;;;;;2.50;1.00;;;18.10;45.60;;;;;;4963380;28;20070;-46
2022/07/16 01:14:26;;;;;;;9.20;1.13;;;18.10;45.60;;;;;;4962548;28;20415;-47
2022/07/16 01:16:53;;;;;;;2.38;0.85;;;18.10;45.80;;;;;;4960461;28;20058;-48
2022/07/16 01:19:21;;;;;;;2.53;0.90;;;18.10;45.80;;;;;;4961677;28;20050;-46
2022/07/16 01:21:48;;;;;;;1.80;0.82;;;18.10;45.90;;;;;;4963178;28;20419;-47
2022/07/16 01:24:18;;;;;;;2.83;1.00;;;18.00;45.90;;;;;;4963237;28;20058;-47
2022/07/16 01:26:45;;;;;;;4.05;0.95;;;18.00;46.10;;;;;;4960847;28;20514;-49
2022/07/16 01:29:12;;;;;;;3.25;0.80;;;18.00;46.20;;;;;;4961163;28;20804;-48
2022/07/16 01:31:40;;;;;;;4.85;1.30;;;18.00;46.30;;;;;;4962195;28;20267;-46
2022/07/16 01:34:26;;;;;;;1.60;0.93;;;17.90;46.30;;;;;;4962964;28;20058;-48
2022/07/16 01:36:55;;;;;;;1.75;0.70;;;17.90;46.40;;;;;;4960697;28;20058;-48
2022/07/16 01:39:25;;;;;;;2.63;0.80;;;17.90;46.50;;;;;;4956081;28;20066;-48
2022/07/16 01:41:53;;;;;;;2.55;0.85;;;17.90;46.50;;;;;;4962628;28;20127;-50
2022/07/16 01:44:21;;;;;;;2.85;1.10;;;17.80;46.60;;;;;;4962960;28;20079;-46
2022/07/16 01:46:48;;;;;;;10.13;1.75;;;17.80;46.60;;;;;;4959755;28;20054;-47
2022/07/16 01:49:16;;;;;;;1.25;0.70;;;17.80;46.80;;;;;;4960286;28;20050;-47
2022/07/16 01:51:43;;;;;;;2.17;0.98;;;17.80;46.70;;;;;;4962675;28;20059;-48
2022/07/16 01:54:11;;;;;;;2.70;1.13;;;17.70;46.80;;;;;;4962748;28;20062;-46
2022/07/16 01:56:40;;;;;;;3.50;1.02;;;17.70;46.80;;;;;;4959969;28;20057;-48
2022/07/16 01:59:07;;;;;;;3.72;0.85;;;17.70;46.90;;;;;;4958611;28;20676;-51
2022/07/16 02:01:35;;;;;;;3.65;1.10;;;17.70;47.00;;;;;;4959340;28;20513;-47
2022/07/16 02:04:02;;;;;;;2.30;1.00;;;17.70;47.10;;;;;;4962578;28;20402;-48
2022/07/16 02:06:30;;;;;;;2.10;1.00;;;17.70;47.10;;;;;;4960502;28;20065;-47
2022/07/16 02:08:57;;;;;;;6.50;1.08;;;17.70;47.20;;;;;;4962067;28;20059;-46
2022/07/16 02:11:25;;;;;;;3.28;0.75;;;17.60;47.10;;;;;;4963002;28;20059;-46
2022/07/16 02:13:54;;;;;;;3.53;0.90;;;17.60;47.10;;;;;;4963153;28;20070;-47
2022/07/16 02:16:21;;;;;;;3.00;0.82;;;17.60;47.10;;;;;;4959056;28;20376;-48
2022/07/16 02:18:49;;;;;;;3.58;1.10;;;17.60;47.00;;;;;;4960479;28;20055;-50
2022/07/16 02:21:17;;;;;;;1.98;0.90;;;17.60;47.10;;;;;;4962893;28;20423;-51
2022/07/16 02:23:45;;;;;;;4.00;0.93;;;17.60;47.00;;;;;;4963536;28;20495;-51
2022/07/16 02:26:12;;;;;;;1.30;0.82;;;17.60;47.10;;;;;;4963082;28;20051;-47
2022/07/16 02:28:40;;;;;;;2.38;0.95;;;17.60;47.20;;;;;;4959543;28;20057;-48
2022/07/16 02:31:09;;;;;;;3.00;1.20;;;17.60;47.20;;;;;;4957314;28;20055;-48
2022/07/16 02:33:37;;;;;;;1.95;0.98;;;17.50;47.20;;;;;;4965890;28;20061;-49
2022/07/16 02:36:05;;;;;;;3.25;0.70;;;17.50;47.30;;;;;;4963291;28;20422;-46
2022/07/16 02:38:32;;;;;;;5.57;0.90;;;17.50;47.30;;;;;;4966620;28;20069;-46
2022/07/16 02:40:59;;;;;;;2.88;0.93;;;17.50;47.40;;;;;;4965199;28;20058;-46
2022/07/16 02:43:27;;;;;;;1.73;0.80;;;17.50;47.40;;;;;;4963592;28;20051;-49
2022/07/16 02:45:54;;;;;;;1.95;0.77;;;17.40;47.40;;;;;;4962508;28;20066;-49
2022/07/16 02:48:24;;;;;;;5.35;1.13;;;17.40;47.50;;;;;;4963647;28;20058;-51
2022/07/16 02:50:51;;;;;;;1.67;0.80;;;17.40;47.70;;;;;;4965193;28;20089;-46
2022/07/16 02:53:18;;;;;;;4.25;1.35;;;17.40;47.70;;;;;;4966765;28;20062;-48
2022/07/16 02:55:46;;;;;;;4.28;1.00;;;17.40;47.70;;;;;;4975160;28;20065;-48
2022/07/16 02:58:14;;;;;;;3.50;1.15;;;17.40;47.70;;;;;;4964250;28;20388;-47
2022/07/16 03:00:41;;;;;;;4.90;0.85;;;17.30;47.80;;;;;;4964193;28;20058;-49
2022/07/16 03:03:08;;;;;;;1.27;0.85;;;17.30;47.90;;;;;;4965940;28;20051;-46
2022/07/16 03:05:37;;;;;;;2.67;1.00;;;17.30;48.00;;;;;;4964791;28;20415;-49
2022/07/16 03:08:06;;;;;;;2.58;1.00;;;17.30;48.10;;;;;;4964584;28;20081;-48
2022/07/16 03:10:33;;;;;;;4.35;1.10;;;17.30;48.10;;;;;;4964797;28;20418;-46
2022/07/16 03:13:01;;;;;;;3.28;0.80;;;17.30;48.20;;;;;;4959616;28;20487;-48
2022/07/16 03:15:29;;;;;;;5.03;0.93;;;17.30;48.20;;;;;;4954277;28;20057;-48
2022/07/16 03:17:56;;;;;;;2.53;0.80;;;17.20;48.20;;;;;;4957245;28;20055;-48
2022/07/16 03:20:24;;;;;;;1.80;0.90;;;17.20;48.10;;;;;;4959139;28;20069;-49
2022/07/16 03:22:53;;;;;;;6.30;1.00;;;17.20;48.10;;;;;;4966063;28;20059;-47
2022/07/16 03:25:20;;;;;;;1.85;0.70;;;17.20;48.10;;;;;;4962863;28;20062;-48
2022/07/16 03:27:48;;;;;;;2.90;0.80;;;17.20;48.20;;;;;;4962554;28;20054;-51
2022/07/16 03:30:17;;;;;;;4.07;1.00;;;17.20;48.30;;;;;;4960635;28;20383;-47
2022/07/16 03:32:45;;;;;;;1.70;0.93;;;17.20;48.40;;;;;;4956009;28;20910;-47
2022/07/16 03:35:13;;;;;;;1.65;1.00;;;17.20;48.50;;;;;;4963512;28;20059;-51
2022/07/16 03:40:29;;;;;;;1.15;0.70;;;17.20;48.30;;;;;;4968870;28;20600;-46
2022/07/16 03:42:56;;;;;;;1.20;0.70;;;17.20;48.30;;;;;;4964946;28;21163;-50
2022/07/16 03:45:24;;;;;;;2.10;1.08;;;17.20;48.40;;;;;;4962534;28;20097;-48
2022/07/16 03:47:51;;;;;;;3.88;0.93;;;17.20;48.40;;;;;;4964068;28;20491;-47
2022/07/16 03:50:19;;;;;;;2.20;0.90;;;17.20;48.50;;;;;;4964061;28;20495;-46
2022/07/16 03:52:47;;;;;;;2.85;1.05;;;17.20;48.60;;;;;;4965051;28;20062;-47
2022/07/16 03:55:16;;;;;;;2.25;0.80;;;17.20;48.70;;;;;;4963522;28;20081;-46
2022/07/16 03:57:45;;;;;;;2.50;0.90;;;17.20;48.80;;;;;;4962577;28;20495;-47
2022/07/16 04:00:14;;;;;;;3.40;1.00;;;17.20;48.80;;;;;;4959678;28;20058;-48
2022/07/16 04:02:41;;;;;;;2.97;1.00;;;17.30;48.90;;;;;;4963670;28;20057;-51
2022/07/16 04:05:09;;;;;;;1.38;0.88;;;17.20;48.70;;;;;;4959363;28;20491;-47
2022/07/16 04:07:37;;;;;;;1.38;0.80;;;17.20;48.70;;;;;;4960825;28;21111;-50
2022/07/16 04:10:05;;;;;;;3.50;1.25;;;17.20;49.00;;;;;;4961425;28;20050;-48
2022/07/16 04:12:33;;;;;;;3.80;1.15;;;17.20;48.50;;;;;;4962101;28;20050;-45
2022/07/16 04:15:02;;;;;;;2.05;1.00;;;17.20;48.60;;;;;;4957207;28;20057;-47
2022/07/16 04:17:29;;;;;;;2.58;0.90;;;17.20;48.60;;;;;;4950406;28;20054;-50
2022/07/16 04:19:58;;;;;;;2.13;0.88;;;17.20;48.60;;;;;;4962389;28;20406;-50
2022/07/16 04:22:25;;;;;;;2.40;0.88;;;17.20;48.70;;;;;;4962143;28;20059;-46
2022/07/16 04:24:53;;;;;;;2.35;1.05;;;17.30;48.90;;;;;;4962388;28;21132;-46
2022/07/16 04:27:20;;;;;;;2.10;0.68;;;17.20;48.90;;;;;;4957040;28;20058;-49
2022/07/16 04:29:48;;;;;;;2.58;1.20;;;17.30;49.00;;;;;;4961051;28;20495;-46
2022/07/16 04:32:16;;;;;;;2.28;1.00;;;17.30;49.20;;;;;;4959989;28;20065;-48
2022/07/16 04:34:44;;;;;;;1.52;0.95;;;17.30;49.30;;;;;;4959933;28;20058;-47
2022/07/16 04:37:11;;;;;;;1.83;0.90;;;17.30;49.30;;;;;;4960222;28;20057;-49
2022/07/16 04:39:39;;;;;;;6.85;2.08;;;17.30;49.40;;;;;;4962950;28;20053;-46
2022/07/16 04:42:06;;;;;;;3.05;0.90;;;17.30;49.50;;;;;;4962010;28;20050;-46
2022/07/16 04:44:34;;;;;;;5.03;1.48;;;17.40;49.50;;;;;;4962835;28;20408;-47
2022/07/16 04:47:01;;;;;;;3.90;1.17;;;17.40;49.60;;;;;;4958328;28;20058;-47
2022/07/16 04:49:30;;;;;;;4.28;1.50;;;17.40;49.60;;;;;;4957733;28;20054;-47
2022/07/16 04:51:58;;;;;;;12.75;5.68;;;17.50;49.60;;;;;;4963981;28;20051;-46
2022/07/16 04:54:25;;;;;;;16.17;8.27;;;17.50;49.50;;;;;;4957500;28;20055;-48
2022/07/16 04:56:52;;;;;;;12.88;5.45;;;17.50;49.40;;;;;;4960595;28;21631;-46
2022/07/16 04:59:20;;;;;;;10.32;3.45;;;17.60;49.50;;;;;;4959967;28;20062;-50
2022/07/16 05:01:48;;;;;;;3.35;1.75;;;17.60;49.40;;;;;;4957893;28;20054;-46
2022/07/16 05:04:15;;;;;;;5.55;1.67;;;17.70;49.40;;;;;;4961125;28;20487;-49
2022/07/16 05:06:44;;;;;;;4.90;1.70;;;17.70;49.30;;;;;;4959978;28;20051;-46
2022/07/16 05:09:12;;;;;;;5.70;2.83;;;17.80;49.30;;;;;;4958901;28;20051;-49
2022/07/16 05:11:39;;;;;;;4.38;1.88;;;17.80;49.20;;;;;;4962554;28;20051;-47
2022/07/16 05:14:07;;;;;;;3.90;1.65;;;17.80;49.20;;;;;;4961371;28;20470;-48
2022/07/16 05:16:34;;;;;;;7.75;2.08;;;17.90;49.20;;;;;;4958431;28;20054;-46
2022/07/16 05:19:02;;;;;;;4.05;1.35;;;18.00;49.20;;;;;;4959321;28;20054;-45
2022/07/16 05:21:29;;;;;;;2.97;1.50;;;18.00;49.60;;;;;;4962679;28;20385;-47
2022/07/16 05:23:58;;;;;;;1.65;1.30;;;18.10;49.10;;;;;;4959531;28;20050;-47
2022/07/16 05:26:25;;;;;;;4.60;2.33;;;18.20;49.10;;;;;;4958681;28;20494;-48
2022/07/16 05:28:53;;;;;;;2.28;1.13;;;18.20;49.00;;;;;;4955663;28;20050;-46
2022/07/16 05:31:21;;;;;;;3.80;1.23;;;18.20;49.00;;;;;;4961338;28;20043;-47
2022/07/16 05:34:32;;;;;;;4.22;1.23;;;18.30;49.10;;;;;;4969210;28;20503;-48
2022/07/16 05:37:00;;;;;;;4.78;1.30;;;18.40;49.10;;;;;;4960204;28;20487;-46
2022/07/16 05:39:29;;;;;;;3.30;1.60;;;18.40;48.80;;;;;;4963833;28;20055;-47
2022/07/16 05:41:57;;;;;;;2.80;1.20;;;18.50;48.90;;;;;;4960916;28;20514;-48
2022/07/16 05:46:33;;;;;;;1.77;1.10;;;18.60;48.20;;;;;;5138773;27;20130;-48
2022/07/16 05:49:01;;;;;;;6.38;1.60;;;18.70;48.70;;;;;;5116625;27;20047;-47
2022/07/16 05:51:29;;;;;;;3.10;1.17;;;18.70;48.60;;;;;;5118502;27;20051;-48
2022/07/16 05:53:56;;;;;;;2.65;1.35;;;18.80;48.70;;;;;;5117652;27;20055;-50
2022/07/16 05:56:23;;;;;;;3.25;1.38;;;18.90;48.60;;;;;;5116747;27;20043;-47
2022/07/16 05:58:51;;;;;;;2.63;1.30;;;18.90;48.60;;;;;;5118450;27;20051;-49
2022/07/16 06:01:18;;;;;;;4.45;1.88;;;19.00;48.60;;;;;;5117800;27;20494;-48
2022/07/16 06:03:47;;;;;;;2.58;1.17;;;19.00;48.40;;;;;;5116642;27;20043;-50
2022/07/16 06:06:15;;;;;;;2.42;1.25;;;19.00;48.40;;;;;;5119438;27;20054;-49
2022/07/16 06:08:42;;;;;;;3.22;1.30;;;19.10;48.30;;;;;;5117323;27;21211;-48
2022/07/16 06:11:09;;;;;;;3.35;1.40;;;19.20;48.20;;;;;;5119630;27;20380;-48
2022/07/16 06:13:37;;;;;;;1.92;1.00;;;19.20;48.20;;;;;;5118155;27;20051;-45
2022/07/16 06:16:07;;;;;;;5.00;1.20;;;19.20;48.10;;;;;;5116859;27;20545;-49
2022/07/16 06:18:34;;;;;;;1.98;1.20;;;19.30;48.10;;;;;;5119848;27;20059;-49
2022/07/16 06:21:03;;;;;;;6.97;1.60;;;19.30;48.00;;;;;;5115817;27;20048;-48
2022/07/16 06:23:30;;;;;;;5.00;1.83;;;19.30;47.90;;;;;;5116371;27;20423;-49
2022/07/16 06:25:58;;;;;;;3.42;1.40;;;19.40;47.80;;;;;;5115755;27;20047;-45
2022/07/16 06:28:25;;;;;;;3.35;1.92;;;19.40;47.80;;;;;;5116487;27;20059;-46
2022/07/16 06:30:55;;;;;;;4.28;1.50;;;19.40;47.70;;;;;;5112607;27;20043;-50
2022/07/16 06:33:23;;;;;;;2.75;1.50;;;19.40;47.60;;;;;;5118970;27;20499;-49
2022/07/16 06:35:50;;;;;;;2.28;1.00;;;19.50;47.60;;;;;;5119369;27;20051;-48
2022/07/16 06:38:19;;;;;;;2.67;1.13;;;19.50;47.50;;;;;;5118749;27;20522;-47
2022/07/16 06:40:47;;;;;;;6.28;1.70;;;19.50;47.50;;;;;;5118500;27;20062;-50
2022/07/16 06:43:15;;;;;;;3.40;1.15;;;19.60;47.50;;;;;;5117871;27;20066;-49
2022/07/16 06:45:43;;;;;;;2.75;1.05;;;19.60;47.40;;;;;;5114119;27;20062;-50
2022/07/16 06:48:11;;;;;;;4.28;1.10;;;19.70;47.40;;;;;;5116451;27;20051;-47
2022/07/16 06:50:38;;;;;;;1.98;1.10;;;19.70;47.60;;;;;;5118374;27;20051;-48
2022/07/16 06:53:06;;;;;;;4.07;0.90;;;19.80;47.50;;;;;;5113752;27;20051;-47
2022/07/16 06:55:35;;;;;;;4.07;1.45;;;19.80;47.10;;;;;;5115155;27;20486;-46
2022/07/16 06:58:02;;;;;;;2.45;0.93;;;19.90;46.70;;;;;;5102917;28;20055;-48
2022/07/16 07:00:30;;;;;;;1.60;0.90;;;19.90;46.40;;;;;;5102149;28;20422;-47
2022/07/16 07:02:58;;;;;;;1.42;1.00;;;20.00;46.40;;;;;;5101340;27;20050;-48
2022/07/16 07:05:25;;;;;;;2.22;1.10;;;20.00;46.00;;;;;;5104037;27;20048;-51
2022/07/16 07:07:53;;;;;;;3.28;1.23;;;20.00;45.90;;;;;;5104415;28;20518;-49
2022/07/16 07:10:20;;;;;;;4.10;1.08;;;20.10;45.80;;;;;;5100851;28;20510;-50
2022/07/16 07:12:49;;;;;;;3.50;1.00;;;20.10;45.70;;;;;;5103297;28;20055;-48
2022/07/16 07:15:17;;;;;;;3.05;1.00;;;20.20;45.30;;;;;;5099260;28;20492;-46
2022/07/16 07:17:44;;;;;;;2.95;1.13;;;20.20;45.40;;;;;;5100576;28;20059;-48
2022/07/16 07:20:12;;;;;;;4.07;1.20;;;20.20;45.00;;;;;;5096031;27;20054;-49
2022/07/16 07:22:40;;;;;;;4.50;1.25;;;20.20;45.20;;;;;;5092376;27;20062;-49
2022/07/16 07:25:08;;;;;;;2.50;0.90;;;20.20;44.90;;;;;;5096485;28;20055;-48
2022/07/16 07:27:36;;;;;;;1.20;0.73;;;20.30;44.90;;;;;;5088665;28;20309;-46
2022/07/16 07:30:05;;;;;;;3.85;1.20;;;20.40;44.90;;;;;;5102008;27;20058;-50
2022/07/16 07:32:33;;;;;;;3.20;1.10;;;20.40;44.80;;;;;;5102359;27;20074;-48
2022/07/16 07:35:00;;;;;;;4.07;1.17;;;20.40;44.50;;;;;;5094586;28;20447;-49
2022/07/16 07:37:28;;;;;;;4.68;1.13;;;20.30;44.70;;;;;;5093053;28;20062;-47
2022/07/16 07:39:56;;;;;;;3.08;1.35;;;20.40;44.90;;;;;;5097943;28;20415;-50
2022/07/16 07:42:23;;;;;;;4.13;1.80;;;20.40;45.40;;;;;;5102205;28;20058;-50
2022/07/16 07:44:51;;;;;;;5.47;1.52;;;20.30;44.20;;;;;;5098996;27;20063;-46
2022/07/16 07:47:20;;;;;;;4.10;1.67;;;20.30;44.80;;;;;;5096179;28;20051;-48
2022/07/16 07:49:47;;;;;;;3.28;1.30;;;20.40;45.50;;;;;;5099051;27;20052;-49
2022/07/16 07:52:15;;;;;;;6.45;2.20;;;20.40;45.30;;;;;;5102596;27;20384;-46
2022/07/16 07:54:44;;;;;;;5.65;1.80;;;20.40;45.10;;;;;;5096423;28;20482;-48
2022/07/16 07:57:12;;;;;;;5.57;1.88;;;20.40;45.30;;;;;;5094292;27;20687;-48
2022/07/16 07:59:40;;;;;;;5.53;2.20;;;20.50;45.70;;;;;;5093831;28;20055;-50
2022/07/16 08:02:08;;;;;;;11.68;3.42;;;20.40;45.60;;;;;;5096886;27;20082;-52
2022/07/16 08:04:37;;;;;;;5.75;2.20;;;20.40;46.00;;;;;;5093386;28;20073;-47
2022/07/16 08:07:05;;;;;;;12.95;3.20;;;20.40;46.00;;;;;;5096295;27;20475;-47
2022/07/16 08:09:34;;;;;;;9.70;2.50;;;20.40;45.80;;;;;;5094514;27;20723;-50
2022/07/16 08:12:02;;;;;;;5.13;2.42;;;20.50;46.00;;;;;;5099365;27;20044;-52
2022/07/16 08:14:31;;;;;;;6.63;2.72;;;20.50;46.50;;;;;;5093419;28;20050;-52
2022/07/16 08:16:59;;;;;;;11.95;3.88;;;20.50;46.70;;;;;;5092400;27;20047;-50
2022/07/16 08:19:27;;;;;;;8.80;3.28;;;20.50;46.90;;;;;;5087217;27;20491;-50
2022/07/16 08:21:56;;;;;;;18.38;3.90;;;20.50;47.10;;;;;;5093703;27;20066;-47
2022/07/16 08:27:09;;;;;;;3.92;2.50;;;20.60;47.10;;;;;;5096995;27;20079;-47
2022/07/16 08:29:37;;;;;;;6.07;2.70;;;20.70;47.00;;;;;;5097239;27;20059;-49
2022/07/16 08:32:05;;;;;;;4.68;2.50;;;20.80;46.90;;;;;;5099792;27;20063;-47
2022/07/16 08:34:33;;;;;;;7.50;3.05;;;20.80;47.10;;;;;;5089051;28;20415;-47
2022/07/16 08:37:05;;;;;;;6.90;2.90;;;20.80;47.10;;;;;;5089466;28;20483;-47
2022/07/16 08:39:33;;;;;;;7.00;2.60;;;20.90;47.70;;;;;;5089482;28;20054;-49
2022/07/16 08:42:00;;;;;;;5.90;2.40;;;21.00;47.20;;;;;;5089050;27;20495;-48
2022/07/16 08:44:28;;;;;;;5.72;2.47;;;20.90;47.00;;;;;;5091521;28;20499;-48
2022/07/16 08:46:57;;;;;;;6.43;3.13;;;21.00;47.10;;;;;;5086065;28;20040;-48
2022/07/16 08:49:26;;;;;;;11.45;3.20;;;21.10;46.90;;;;;;5089913;28;20059;-47
2022/07/16 08:51:57;;;;;;;6.97;3.05;;;21.20;46.90;;;;;;5099750;28;20062;-48
2022/07/16 08:54:28;;;;;;;14.45;3.75;;;21.20;47.10;;;;;;5100633;28;20047;-51
2022/07/16 08:56:55;;;;;;;13.75;4.72;;;21.20;47.60;;;;;;5100459;28;20495;-46
2022/07/16 08:59:23;;;;;;;14.38;4.43;;;21.30;47.90;;;;;;5101478;28;20051;-47
2022/07/16 09:01:51;;;;;;;16.13;5.20;;;21.30;47.80;;;;;;5093636;28;20383;-46
2022/07/16 09:04:18;;;;;;;11.70;4.85;;;21.30;47.30;;;;;;5093961;28;20052;-48
2022/07/16 09:06:46;;;;;;;12.27;5.63;;;21.40;47.70;;;;;;5092490;27;20059;-47
2022/07/16 09:09:14;;;;;;;17.95;5.57;;;21.30;47.40;;;;;;5091690;28;20497;-47
2022/07/16 09:11:46;;;;;;;10.45;4.00;;;21.30;47.60;;;;;;5096436;28;20518;-49
2022/07/16 09:14:15;;;;;;;6.90;3.55;;;21.40;47.90;;;;;;5098629;28;20063;-51
2022/07/16 09:16:44;;;;;;;6.88;3.97;;;21.50;47.60;;;;;;5099131;28;20044;-51
2022/07/16 09:19:13;;;;;;;13.27;4.22;;;21.50;47.70;;;;;;5095692;28;20048;-48
2022/07/16 09:21:59;;;;;;;8.10;4.32;;;21.60;47.60;;;;;;5098090;28;20047;-48
2022/07/16 09:24:35;;;;;;;11.50;3.83;;;21.60;46.80;;;;;;5092411;28;20068;-47
2022/07/16 09:27:08;;;;;;;9.27;4.25;;;21.70;47.70;;;;;;5092287;28;20475;-50
2022/07/16 09:29:43;;;;;;;12.18;4.72;;;21.70;47.30;;;;;;5095797;28;20059;-50
2022/07/16 09:32:11;;;;;;;11.82;4.03;;;21.70;46.70;;;;;;5093027;28;20052;-47
2022/07/16 09:34:38;;;;;;;11.32;4.20;;;21.70;47.20;;;;;;5099232;28;20060;-48
2022/07/16 09:37:07;;;;;;;14.90;4.90;;;21.70;47.30;;;;;;5099279;28;20043;-50
2022/07/16 09:39:35;;;;;;;14.95;4.28;;;21.70;47.30;;;;;;5095303;28;20062;-47
2022/07/16 09:42:03;;;;;;;11.93;3.90;;;21.70;47.40;;;;;;5101843;28;20047;-52
2022/07/16 09:44:34;;;;;;;9.52;4.20;;;21.80;47.40;;;;;;5099361;28;20055;-46
2022/07/16 09:47:04;;;;;;;12.80;4.47;;;21.80;47.60;;;;;;5092116;28;20051;-49
2022/07/16 09:49:34;;;;;;;6.78;3.30;;;21.90;47.20;;;;;;5098961;28;20051;-45
2022/07/16 09:52:01;;;;;;;13.20;4.25;;;21.90;47.30;;;;;;5100172;28;20502;-48
2022/07/16 09:54:32;;;;;;;8.88;4.07;;;21.90;47.20;;;;;;5098837;28;20052;-46
2022/07/16 09:57:11;;;;;;;9.32;4.50;;;22.00;47.40;;;;;;5094041;28;20376;-48
2022/07/16 09:59:41;;;;;;;10.90;4.57;;;22.10;47.30;;;;;;5096502;28;20044;-51
2022/07/16 10:02:09;;;;;;;11.50;4.50;;;22.00;46.80;;;;;;5097882;28;20056;-48
2022/07/16 10:04:36;;;;;;;5.65;3.80;;;22.10;46.70;;;;;;5100160;28;20063;-49
2022/07/16 10:07:04;;;;;;;5.32;3.65;;;22.10;46.70;;;;;;5095397;28;20487;-48
2022/07/16 10:09:32;;;;;;;8.85;3.83;;;22.10;46.90;;;;;;5099151;28;20388;-47
2022/07/16 10:12:06;;;;;;;6.95;3.15;;;22.20;46.90;;;;;;5100628;28;20059;-49
2022/07/16 10:14:35;;;;;;;6.72;4.38;;;22.30;46.80;;;;;;5101376;28;20047;-47
2022/07/16 10:17:12;;;;;;;11.73;3.75;;;22.30;46.60;;;;;;5097471;28;20399;-48
2022/07/16 10:19:39;;;;;;;8.45;3.83;;;22.30;46.40;;;;;;5101969;28;20055;-48
2022/07/16 10:22:29;;;;;;;8.68;3.42;;;22.30;46.30;;;;;;5101284;28;20511;-49
2022/07/16 10:24:58;;;;;;;11.40;4.10;;;22.30;46.50;;;;;;5094075;28;20055;-49
2022/07/16 10:27:32;;;;;;;15.20;4.32;;;22.20;46.10;;;;;;5096879;28;20059;-50
2022/07/16 10:30:09;;;;;;;;;;;22.20;46.20;;;;;;5094929;28;20056;-50
2022/07/16 10:33:13;;;;;;;5.28;3.50;;;22.30;46.60;;;;;;5100322;28;19930;-46
2022/07/16 10:35:49;;;;;;;9.43;4.32;;;22.30;47.10;;;;;;5101337;28;20056;-46
2022/07/16 10:38:20;;;;;;;7.45;4.55;;;22.30;46.80;;;;;;5100017;28;21677;-49
2022/07/16 10:41:04;;;;;;;9.85;3.88;;;22.30;46.60;;;;;;5102611;28;21171;-51
2022/07/16 10:43:32;;;;;;;8.32;4.03;;;22.40;47.10;;;;;;5105148;28;20051;-50
2022/07/16 10:46:02;;;;;;;5.47;2.85;;;22.60;47.10;;;;;;5100323;28;20052;-46
2022/07/16 10:48:37;;;;;;;6.68;4.68;;;22.70;47.10;;;;;;5098885;28;20044;-47
2022/07/16 10:51:16;;;;;;;7.03;4.22;;;22.80;45.80;;;;;;5102191;28;20055;-49
2022/07/16 10:54:29;;;;;;;8.18;4.75;;;22.80;45.60;;;;;;5102382;27;20055;-49
2022/07/16 10:57:02;;;;;;;8.77;5.55;;;22.90;45.60;;;;;;5097687;28;20415;-53
2022/07/16 10:59:31;;;;;;;15.50;5.63;;;22.80;45.40;;;;;;5102092;27;20054;-51
2022/07/16 11:02:03;;;;;;;9.65;5.10;;;22.80;45.60;;;;;;5106254;27;20395;-48
2022/07/16 11:04:37;;;;;;;7.18;5.32;;;22.80;46.20;;;;;;5104341;27;20062;-47
2022/07/16 11:07:08;;;;;;;9.68;5.70;;;22.70;45.70;;;;;;5104498;27;20047;-46
2022/07/16 11:09:38;;;;;;;5.88;4.80;;;22.70;45.90;;;;;;5105463;27;20055;-51
2022/07/16 11:12:15;;;;;;;8.70;5.45;;;22.70;45.90;;;;;;5105617;27;20056;-48
2022/07/16 11:14:45;;;;;;;6.97;4.82;;;22.60;45.40;;;;;;5104316;27;20051;-50
2022/07/16 11:17:15;;;;;;;7.13;4.68;;;22.60;45.90;;;;;;5105171;27;20051;-48
2022/07/16 11:19:50;;;;;;;8.20;4.15;;;22.70;45.70;;;;;;5107348;27;20056;-47
2022/07/16 11:22:20;;;;;;;6.00;3.17;;;22.70;45.50;;;;;;5106026;27;20060;-54
2022/07/16 11:24:54;;;;;;;9.10;3.20;;;22.70;44.30;;;;;;5105989;27;20059;-49
2022/07/16 11:27:26;;;;;;;4.53;2.67;;;22.80;44.20;;;;;;5101593;27;20388;-50
2022/07/16 11:29:57;;;;;;;2.67;2.10;;;22.70;43.30;;;;;;5103347;27;20058;-50
2022/07/16 11:32:24;;;;;;;3.70;2.22;;;22.70;43.00;;;;;;5103624;28;20514;-48
2022/07/16 11:34:53;;;;;;;5.03;1.75;;;22.70;43.60;;;;;;5104356;28;20051;-48
2022/07/16 11:37:21;;;;;;;3.88;1.60;;;22.70;42.40;;;;;;5101618;28;20074;-46
2022/07/16 11:39:49;;;;;;;2.28;1.38;;;22.70;41.90;;;;;;5104325;28;20067;-50
2022/07/16 11:42:21;;;;;;;3.60;1.58;;;22.80;41.80;;;;;;5104075;28;20062;-57
2022/07/16 11:44:48;;;;;;;6.18;2.05;;;22.90;41.80;;;;;;5103919;28;20056;-46
2022/07/16 11:47:16;;;;;;;3.30;1.17;;;23.00;41.40;;;;;;5101429;27;20060;-48
2022/07/16 11:49:45;;;;;;;2.38;1.10;;;23.00;41.50;;;;;;5102884;28;20408;-54
2022/07/16 11:52:24;;;;;;;3.05;1.20;;;23.10;41.60;;;;;;5104854;28;20055;-45
2022/07/16 11:54:53;;;;;;;5.72;1.40;;;23.10;40.90;;;;;;5103842;28;20056;-50
2022/07/16 11:57:21;;;;;;;4.32;1.63;;;23.20;41.30;;;;;;5100395;28;20051;-50
2022/07/16 11:59:51;;;;;;;4.50;1.23;;;23.30;41.00;;;;;;5101469;28;20055;-52
2022/07/16 12:02:20;;;;;;;3.97;1.20;;;23.50;41.10;;;;;;5103539;28;20568;-50
2022/07/16 12:04:50;;;;;;;2.72;1.25;;;23.50;39.20;;;;;;5103976;28;20392;-50
2022/07/16 12:07:31;;;;;;;3.65;1.20;;;23.50;38.60;;;;;;5102891;28;20051;-53
2022/07/16 12:10:00;;;;;;;4.82;1.40;;;23.50;38.70;;;;;;5101701;28;20060;-47
2022/07/16 12:12:29;;;;;;;1.85;1.00;;;23.60;39.30;;;;;;5102061;28;20491;-50
2022/07/16 12:14:58;;;;;;;3.03;1.40;;;23.60;39.20;;;;;;5103415;28;20525;-50
2022/07/16 12:17:28;;;;;;;5.57;1.42;;;23.50;38.80;;;;;;5101560;28;20514;-50
2022/07/16 12:20:12;;;;;;;4.47;1.40;;;23.60;39.00;;;;;;5103943;28;20062;-50
2022/07/16 12:22:56;;;;;;;2.65;1.20;;;23.60;38.40;;;;;;5103876;28;20491;-48
2022/07/16 12:25:31;;;;;;;1.88;1.10;;;23.60;39.10;;;;;;5102394;28;20066;-48
2022/07/16 12:28:01;;;;;;;1.25;0.80;;;23.70;39.20;;;;;;5099584;28;20050;-49
2022/07/16 12:30:33;;;;;;;3.45;1.00;;;23.70;39.10;;;;;;5102693;28;20059;-49
2022/07/16 12:33:01;;;;;;;2.22;0.90;;;23.80;38.70;;;;;;5102527;28;20818;-47
2022/07/16 12:35:43;;;;;;;3.47;1.20;;;23.90;38.00;;;;;;5101512;28;20047;-47
2022/07/16 12:38:44;;;;;;;3.55;0.80;;;23.90;38.00;;;;;;5102601;28;20047;-56
2022/07/16 12:41:13;;;;;;;5.35;1.13;;;24.00;36.90;;;;;;5101864;28;20429;-61
2022/07/16 12:43:42;;;;;;;7.40;1.20;;;24.00;36.90;;;;;;5102376;28;20055;-61
2022/07/16 12:46:10;;;;;;;3.30;1.10;;;24.00;36.90;;;;;;5099591;27;20052;-57
2022/07/16 12:48:46;;;;;;;5.05;1.00;;;23.90;36.30;;;;;;5100747;28;20047;-57
2022/07/16 12:51:18;;;;;;;5.97;1.00;;;23.80;36.90;;;;;;5103246;28;20055;-55
2022/07/16 12:53:48;;;;;;;4.55;1.42;;;23.80;37.20;;;;;;5103297;28;20051;-57
2022/07/16 12:59:03;;;;;;;3.40;1.20;;;23.70;36.70;;;;;;5102731;28;20050;-57
2022/07/16 13:01:31;;;;;;;3.08;1.10;;;23.80;37.10;;;;;;5103074;27;20052;-57
2022/07/16 13:03:59;;;;;;;1.75;0.80;;;23.80;37.10;;;;;;5099374;28;20052;-55
2022/07/16 13:06:27;;;;;;;2.00;1.17;;;23.90;38.40;;;;;;5101319;28;20055;-57
2022/07/16 13:08:56;;;;;;;3.15;1.20;;;24.00;37.10;;;;;;5096786;28;20043;-58